Terminal Aerodrome Forecast
Issued by NWS

Home | Current Version | Previous Version | Graphics & Text | Print | Product List | Glossary On
Versions: 1 2 3 4 5 6 7 8 9 10 11 12 13 14 15 16 17 18 19 20 21 22 23 24 25 26 27 28 29 30 31 32 33 34 35 36 37
000
FTUS43 KLOT 282327
TAFORD
TAF
KORD 282327Z 2900/3006 14006KT P6SM SCT100 OVC120
     FM291200 16006KT 6SM -SHRA BKN060 OVC080
     FM291600 21012KT P6SM SCT040 BKN120 PROB30 2919/2922 4SM TSRA
      OVC040CB
     FM300000 18008KT P6SM SCT060 BKN250=

USA.gov is the U.S. government's official web portal to all federal, state and local government web resources and services.